X  Sluiten METAR luchtvaart weer gegevens      EHRD Rotterdam The Hague Airport
Temperatuur
21°C Temperatuur
10°C Dauwpunt
50% Vochtigheid



Wind
5 MPH
8 KM/U
2 M/S
4 KTS



350°
N
Huidig weer

Helder Helder
Luchtdruk 1018.96 (hPa) - 30.09 (inHg)
Zicht 6 (mijl) - 9.7 (km)
Vliegveld
Vliegveld code EHRD

Locatie : Rotterdam The Hague Airport
Afstand: 23 (mi)

Metar:
EHRD 241725Z AUTO 35004KT 310V040 9999 NCD 21/10 Q1019 NOSIG

Tijd: 24-07-2024 19:25 CEST